CDT,Max TemperatureF,Mean TemperatureF,Min TemperatureF,Max Dew PointF,MeanDew PointF,Min DewpointF,Max Humidity, Mean Humidity, Min Humidity, Max Sea Level PressureIn, Mean Sea Level PressureIn, Min Sea Level PressureIn, Max VisibilityMiles, Mean VisibilityMiles, Min VisibilityMiles, Max Wind SpeedMPH, Mean Wind SpeedMPH, Max Gust SpeedMPH,PrecipitationIn, CloudCover, Events, WindDirDegrees
2013-5-1,84,64,45,65,56,40,95,75,51,30.11,29.89,29.73,10,10,10,33,17,45,0.00,4,,111
2013-5-2,52,45,39,39,35,27,87,74,41,30.42,30.29,30.13,10,10,10,39,29,50,0.15,7,Rain,6
2013-5-3,64,51,38,31,28,25,69,40,22,30.38,30.19,30.01,10,10,10,21,11,34,0.00,1,,347
2013-5-4,67,51,35,40,30,17,84,46,15,30.07,29.99,29.94,10,10,10,25,9,39,0.00,0,,357
2013-5-5,67,56,45,48,43,40,81,67,49,30.20,30.12,30.06,10,10,10,16,10,22,0.00,4,,21
2013-5-6,74,60,46,51,48,43,92,64,39,30.12,30.06,30.00,10,10,10,7,3,,0.00,1,,43
2013-5-7,82,68,54,53,50,48,83,48,30,30.05,29.96,29.86,10,10,9,18,8,22,0.00,2,,148
2013-5-8,87,72,59,63,58,51,80,55,43,29.91,29.83,29.75,10,10,10,24,14,39,0.00,2,Thunderstorm,168
2013-5-9,75,68,62,65,62,57,96,79,64,29.95,29.87,29.81,10,10,8,16,8,22,0.03,4,Rain-Thunderstorm,151
2013-5-10,72,64,57,65,59,53,100,87,55,30.11,30.00,29.88,10,7,1,21,9,26,0.70,5,Rain-Thunderstorm,349
2013-5-11,80,66,52,56,51,45,92,58,29,30.24,30.15,30.09,10,10,10,17,7,26,0.00,0,,3
2013-5-12,79,65,51,46,41,36,72,44,23,30.27,30.18,30.07,10,10,6,15,9,20,0.00,1,,145
2013-5-13,91,72,55,50,44,41,69,40,18,30.14,30.08,30.01,10,10,10,21,10,29,0.00,0,,213
2013-5-14,89,75,61,54,49,41,56,39,24,30.06,29.98,29.86,10,10,10,20,10,28,0.00,0,,206
2013-5-15,74,68,62,68,63,53,95,80,48,29.93,29.86,29.73,10,9,2,15,9,22,0.13,6,Rain-Thunderstorm,144
2013-5-16,73,66,59,64,62,60,100,86,73,29.82,29.79,29.75,10,10,5,13,7,16,0.07,7,Rain,67
2013-5-17,86,75,64,74,68,64,100,96,66,29.85,29.81,29.74,10,4,1,14,8,23,0.00,7,,97
2013-5-18,95,80,66,74,66,57,100,73,41,29.81,29.74,29.60,10,9,3,24,13,36,0.02,4,Rain-Thunderstorm,93
2013-5-19,100,84,68,70,57,29,86,52,9,29.70,29.60,29.49,10,9,3,23,14,36,0.00,0,,185
2013-5-20,94,82,69,69,62,44,85,61,17,29.75,29.65,29.59,10,10,5,18,13,29,0.00,1,,176
2013-5-21,72,64,57,64,54,50,91,75,54,29.98,29.85,29.71,10,9,2,23,11,36,0.37,5,Rain-Hail-Thunderstorm,14
2013-5-22,84,70,55,58,55,52,92,58,33,29.94,29.86,29.81,10,10,2,16,6,22,0.00,0,,171
2013-5-23,86,75,64,68,61,57,88,68,39,30.03,29.95,29.87,10,10,10,23,12,31,0.00,3,,106
2013-5-24,86,74,63,72,67,59,92,80,59,30.13,30.08,30.02,10,8,1,26,12,31,0.50,4,Rain-Thunderstorm,145
2013-5-25,80,71,63,70,66,60,92,82,70,30.14,30.06,29.98,10,10,8,23,13,32,0.00,5,Thunderstorm,156
2013-5-26,86,77,68,70,69,66,95,79,57,30.02,29.95,29.84,10,10,10,23,14,31,0.00,5,,164
2013-5-27,86,78,70,70,69,68,92,74,55,29.88,29.79,29.68,10,10,10,28,18,37,0.00,2,,176
2013-5-28,79,76,74,70,67,65,85,73,63,29.76,29.72,29.64,10,10,10,25,15,33,0.00,5,,166
2013-5-29,83,72,62,70,65,59,94,81,65,29.73,29.64,29.53,10,7,0,40,18,50,0.99,6,Fog-Rain-Thunderstorm,169
2013-5-30,92,81,71,70,68,64,88,70,41,29.70,29.63,29.56,10,10,8,22,16,32,0.02,5,Rain-Thunderstorm,173
2013-5-31,94,83,73,75,72,68,85,68,48,29.74,29.63,29.48,10,10,6,24,17,41,0.02,2,Rain-Thunderstorm,173